Time;durP1;ratioP1;P1;durP2;ratioP2;P2;SDS_P1;SDS_P2;PMS_P1;PMS_P2;Temp;Humidity;BMP_temperature;BMP_pressure;BME280_temperature;BME280_humidity;BME280_pressure;Samples;Min_cycle;Max_cycle;Signal;HPM_P1;HPM_P2
2023/05/23 00:01:06;;;;;;;39.63;25.15;;;17.60;99.90;;;20.35;59.16;97468.72;4971271;28;20054;-48
2023/05/23 00:03:35;;;;;;;38.90;25.00;;;17.70;99.90;;;20.36;58.88;97467.69;4972659;28;20050;-47
2023/05/23 00:06:06;;;;;;;38.72;24.33;;;17.70;99.90;;;20.25;59.34;97465.75;4971000;28;20043;-45
2023/05/23 00:08:34;;;;;;;39.72;24.67;;;17.70;99.90;;;20.42;58.92;97464.06;4954603;28;20050;-46
2023/05/23 00:11:01;;;;;;;36.20;21.60;;;17.80;99.90;;;20.52;58.64;97463.50;4971437;28;20043;-49
2023/05/23 00:13:32;;;;;;;37.40;24.63;;;17.80;99.90;;;20.54;58.72;97458.69;4972607;28;20600;-45
2023/05/23 00:16:01;;;;;;;38.72;25.90;;;17.90;99.90;;;20.64;58.42;97458.16;4972416;28;20073;-47
2023/05/23 00:18:29;;;;;;;37.42;27.60;;;18.00;99.90;;;20.65;58.43;97457.13;4972339;28;20463;-46
2023/05/23 00:20:58;;;;;;;39.50;25.92;;;18.00;99.90;;;20.66;58.26;97464.19;4971784;28;20047;-47
2023/05/23 00:23:28;;;;;;;44.00;28.13;;;18.00;99.90;;;20.63;58.33;97464.66;4971236;28;20043;-44
2023/05/23 00:25:57;;;;;;;38.42;27.27;;;18.00;99.90;;;20.55;58.61;97464.91;4972458;28;20403;-46
2023/05/23 00:28:25;;;;;;;42.42;28.15;;;17.90;99.90;;;20.64;58.31;97471.69;4955457;28;20415;-45
2023/05/23 00:30:52;;;;;;;46.03;28.42;;;18.00;99.90;;;20.63;58.76;97470.06;4953935;28;20047;-45
2023/05/23 00:33:21;;;;;;;40.60;26.05;;;17.90;99.90;;;20.65;58.40;97474.19;4962624;28;20046;-47
2023/05/23 00:35:49;;;;;;;47.17;29.48;;;17.90;99.90;;;20.64;58.60;97475.22;4954876;28;20062;-48
2023/05/23 00:38:17;;;;;;;49.95;30.48;;;17.90;99.90;;;20.58;58.60;97475.28;4954602;28;20539;-45
2023/05/23 00:40:45;;;;;;;50.30;28.90;;;17.80;99.90;;;20.65;58.31;97484.19;4971747;28;20046;-46
2023/05/23 00:43:13;;;;;;;46.17;30.85;;;17.90;99.90;;;20.64;58.34;97480.63;4954895;28;20061;-49
2023/05/23 00:45:41;;;;;;;42.25;29.10;;;17.90;99.90;;;20.58;58.78;97481.53;4970535;28;20051;-45
2023/05/23 00:48:10;;;;;;;48.65;29.75;;;17.90;99.90;;;20.57;59.09;97479.88;4954120;28;20430;-46
2023/05/23 00:50:38;;;;;;;54.60;32.10;;;17.80;99.90;;;20.45;59.57;97504.16;4971729;28;20077;-47
2023/05/23 00:53:15;;;;;;;51.05;31.10;;;17.80;99.90;;;20.50;58.96;97497.25;4954506;28;20043;-48
2023/05/23 00:55:57;;;;;;;47.33;29.58;;;17.70;99.90;;;20.60;58.46;97492.97;4969163;28;20062;-45
2023/05/23 00:58:25;;;;;;;48.17;29.95;;;17.90;99.90;;;20.66;58.89;97502.03;4969727;28;20054;-45
2023/05/23 01:00:54;;;;;;;53.03;30.98;;;18.00;99.90;;;20.71;58.21;97496.78;4954279;28;20059;-45
2023/05/23 01:03:22;;;;;;;50.63;32.45;;;17.90;99.90;;;20.72;58.27;97501.13;4971752;28;20050;-45
2023/05/23 01:05:50;;;;;;;50.55;30.35;;;18.00;99.90;;;20.74;58.18;97498.19;4971760;28;20051;-45
2023/05/23 01:08:18;;;;;;;50.13;31.60;;;17.90;99.90;;;20.81;58.40;97493.53;4970500;28;20058;-46
2023/05/23 01:10:45;;;;;;;53.63;32.00;;;18.00;99.90;;;20.62;58.46;97501.66;4943281;28;20051;-50
2023/05/23 01:13:32;;;;;;;47.13;33.33;;;17.90;99.90;;;20.70;58.36;97495.13;4971544;28;20042;-46
2023/05/23 01:16:24;;;;;;;51.55;33.92;;;17.90;99.90;;;20.65;58.18;97501.22;4954645;28;20076;-45
2023/05/23 01:19:15;;;;;;;51.78;32.88;;;17.90;99.90;;;20.69;58.52;97500.78;4955603;28;20503;-45
2023/05/23 01:21:51;;;;;;;54.20;36.08;;;17.90;99.90;;;20.62;58.35;97501.66;4969901;28;20055;-45
2023/05/23 01:24:54;;;;;;;57.28;35.10;;;17.80;99.90;;;20.65;58.37;97503.94;4974646;28;20051;-48
2023/05/23 01:27:51;;;;;;;59.90;36.60;;;17.80;99.90;;;20.48;58.99;97500.19;4957940;28;20050;-49
2023/05/23 01:30:22;;;;;;;68.43;35.92;;;17.80;99.90;;;20.35;59.48;97500.34;4958694;28;20058;-45
2023/05/23 01:32:53;;;;;;;61.90;38.85;;;17.70;99.90;;;20.38;59.11;97497.19;4975744;28;20058;-44
2023/05/23 01:35:26;;;;;;;65.40;36.15;;;17.60;99.90;;;20.31;59.75;97497.25;4975431;28;20047;-45
2023/05/23 01:37:55;;;;;;;60.92;37.53;;;17.50;99.90;;;20.36;58.90;97497.41;4975176;28;20039;-46
2023/05/23 01:40:25;;;;;;;56.83;36.45;;;17.60;99.90;;;20.34;59.11;97494.13;4973940;28;20794;-44
2023/05/23 01:42:56;;;;;;;58.00;36.13;;;17.60;99.90;;;20.31;59.63;97493.75;4975811;28;20115;-49
2023/05/23 01:45:26;;;;;;;59.42;37.45;;;17.50;99.90;;;20.31;59.65;97491.84;4974105;28;20047;-45
2023/05/23 01:47:55;;;;;;;61.40;37.50;;;17.60;99.90;;;20.02;60.02;97494.28;4973932;28;20051;-44
2023/05/23 01:50:25;;;;;;;63.13;38.85;;;17.40;99.90;;;20.12;60.17;97493.75;4957370;28;20043;-47
2023/05/23 01:52:55;;;;;;;69.82;43.30;;;17.50;99.90;;;20.18;60.07;97490.16;4974667;28;20043;-47
2023/05/23 01:55:25;;;;;;;61.67;39.58;;;17.50;99.90;;;20.24;59.37;97491.97;4973205;28;20512;-44
2023/05/23 01:57:55;;;;;;;65.72;40.72;;;17.50;99.90;;;20.26;59.38;97489.03;4957688;28;20051;-46
2023/05/23 02:00:24;;;;;;;59.97;38.03;;;17.50;99.90;;;20.18;59.76;97486.63;4957198;28;20173;-45
2023/05/23 02:02:52;;;;;;;58.92;40.92;;;17.50;99.90;;;20.21;59.63;97489.69;4957384;28;20047;-47
2023/05/23 02:05:22;;;;;;;61.30;36.85;;;17.50;99.90;;;20.18;59.39;97502.84;4974564;28;20054;-45
2023/05/23 02:07:50;;;;;;;62.22;39.92;;;17.50;99.90;;;20.13;59.67;97494.59;4974723;28;20418;-46
2023/05/23 02:10:18;;;;;;;60.22;36.90;;;17.50;99.90;;;20.18;59.85;97494.72;4957010;28;20503;-46
2023/05/23 02:12:46;;;;;;;62.80;41.83;;;17.40;99.90;;;20.08;60.05;97497.13;4974691;28;20043;-48
2023/05/23 02:15:13;;;;;;;58.70;39.65;;;17.40;99.90;;;20.08;59.91;97491.72;4965338;28;20042;-49
2023/05/23 02:17:41;;;;;;;64.70;39.33;;;17.40;99.90;;;20.13;59.88;97489.19;4971623;28;20511;-47
2023/05/23 02:20:09;;;;;;;62.50;40.00;;;17.40;99.90;;;20.15;59.55;97495.19;4974240;28;20388;-46
2023/05/23 02:22:37;;;;;;;58.85;39.28;;;17.40;99.90;;;19.97;60.39;97504.13;4957177;28;20051;-46
2023/05/23 02:25:06;;;;;;;66.25;38.72;;;17.30;99.90;;;19.90;60.54;97503.38;4972760;28;20062;-47
2023/05/23 02:27:34;;;;;;;60.70;41.95;;;17.20;99.90;;;19.75;61.11;97507.25;4957125;28;20047;-45
2023/05/23 02:30:02;;;;;;;68.28;42.03;;;17.20;99.90;;;19.79;60.95;97504.91;4973678;28;20047;-47
2023/05/23 02:32:31;;;;;;;58.72;40.60;;;17.20;99.90;;;19.93;60.55;97503.75;4956956;28;20391;-44
2023/05/23 02:34:58;;;;;;;57.53;38.55;;;17.30;99.90;;;19.93;60.46;97508.31;4957242;28;20046;-45
2023/05/23 02:37:26;;;;;;;62.20;39.70;;;17.30;99.90;;;20.00;59.85;97515.28;4956219;28;20063;-48
2023/05/23 02:39:55;;;;;;;66.20;39.85;;;17.30;99.90;;;19.90;60.64;97512.28;4974027;28;20418;-48
2023/05/23 02:42:23;;;;;;;61.63;39.35;;;17.30;99.90;;;19.88;60.65;97518.97;4957130;28;20050;-48
2023/05/23 02:44:50;;;;;;;60.72;39.42;;;17.20;99.90;;;19.80;60.89;97507.41;4956141;28;20062;-44
2023/05/23 02:47:18;;;;;;;62.03;38.28;;;17.20;99.90;;;19.93;60.59;97521.81;4964164;28;20051;-44
2023/05/23 02:49:48;;;;;;;56.60;39.33;;;17.30;99.90;;;20.03;60.21;97517.56;4956031;28;20038;-47
2023/05/23 02:52:16;;;;;;;59.10;37.55;;;17.40;99.90;;;20.11;60.01;97518.31;4956142;28;20050;-46
2023/05/23 02:54:44;;;;;;;58.13;37.08;;;17.40;99.90;;;19.91;60.63;97527.47;4956495;28;20418;-45
2023/05/23 02:57:12;;;;;;;57.72;36.35;;;17.30;99.90;;;19.98;60.41;97525.50;4956271;28;20043;-48
2023/05/23 02:59:41;;;;;;;54.28;34.67;;;17.30;99.90;;;20.12;59.83;97526.19;4955740;28;20047;-48
2023/05/23 03:02:09;;;;;;;59.30;36.53;;;17.40;99.90;;;20.17;59.53;97531.75;4964006;28;20057;-46
2023/05/23 03:04:37;;;;;;;57.75;37.20;;;17.40;99.90;;;20.04;59.99;97537.28;4956326;28;20050;-45
2023/05/23 03:07:05;;;;;;;60.72;37.25;;;17.30;99.90;;;19.91;60.51;97526.63;4973480;28;20062;-45
2023/05/23 03:09:43;;;;;;;57.83;37.40;;;17.20;99.90;;;19.97;60.16;97523.88;4955705;28;20419;-46
2023/05/23 03:12:11;;;;;;;54.10;36.35;;;17.20;99.90;;;19.75;61.05;97528.84;4973252;28;20047;-45
2023/05/23 03:14:39;;;;;;;61.22;37.40;;;17.20;99.90;;;19.75;60.93;97534.25;4956277;28;20510;-44
2023/05/23 03:17:07;;;;;;;55.60;37.42;;;17.20;99.90;;;19.89;60.43;97528.72;4955879;28;20093;-47
2023/05/23 03:19:34;;;;;;;52.47;34.42;;;17.20;99.90;;;20.03;60.02;97535.66;4955850;28;20039;-49
2023/05/23 03:22:03;;;;;;;49.92;34.00;;;17.30;99.90;;;19.94;60.15;97542.41;4973325;28;20039;-49
2023/05/23 03:24:31;;;;;;;53.15;37.22;;;17.20;99.90;;;19.86;60.53;97535.41;4956056;28;20054;-47
2023/05/23 03:27:00;;;;;;;52.15;35.08;;;17.20;99.90;;;19.98;60.22;97533.59;4955905;28;20450;-47
2023/05/23 03:29:28;;;;;;;55.17;37.28;;;17.20;99.90;;;20.10;59.56;97541.78;4955119;28;20043;-45
2023/05/23 03:31:57;;;;;;;50.45;33.25;;;17.30;99.90;;;20.08;59.52;97538.50;4973050;28;20034;-48
2023/05/23 03:34:25;;;;;;;48.78;34.63;;;17.30;99.90;;;20.16;59.48;97540.06;4947950;28;20050;-45
2023/05/23 03:36:53;;;;;;;49.95;35.03;;;17.40;99.90;;;20.04;59.68;97542.69;4971157;28;20054;-48
2023/05/23 03:39:22;;;;;;;50.78;35.00;;;17.30;99.90;;;20.05;59.75;97544.34;4956134;28;20062;-44
2023/05/23 03:41:50;;;;;;;52.67;35.22;;;17.30;99.90;;;20.03;59.83;97547.28;4954888;28;20042;-46
2023/05/23 03:44:18;;;;;;;51.88;34.85;;;17.30;99.90;;;20.02;60.13;97539.38;4955991;28;20046;-48
2023/05/23 03:46:46;;;;;;;46.83;34.03;;;17.20;99.90;;;20.02;59.97;97548.31;4963493;28;20050;-48
2023/05/23 03:49:15;;;;;;;48.42;35.33;;;17.30;99.90;;;20.00;60.25;97550.41;4954675;28;20050;-49
2023/05/23 03:51:44;;;;;;;48.97;34.80;;;17.20;99.90;;;19.95;60.28;97550.28;4955210;28;20456;-48
2023/05/23 03:54:16;;;;;;;50.60;33.13;;;17.20;99.90;;;20.04;59.74;97545.41;4955338;28;20043;-44
2023/05/23 03:56:45;;;;;;;52.40;34.40;;;17.20;99.90;;;19.98;60.02;97549.00;4955214;28;20054;-46
2023/05/23 03:59:12;;;;;;;49.45;34.20;;;17.20;99.90;;;20.00;60.03;97542.31;4972743;28;20431;-47
2023/05/23 04:01:40;;;;;;;50.15;33.60;;;17.20;99.90;;;19.89;60.06;97548.47;4962814;28;20058;-48
2023/05/23 04:04:08;;;;;;;52.33;33.35;;;17.20;99.90;;;19.90;60.38;97552.00;4955456;28;20046;-45
2023/05/23 04:06:38;;;;;;;49.05;33.72;;;17.10;99.90;;;19.89;60.17;97553.88;4971946;28;20069;-45
2023/05/23 04:09:06;;;;;;;52.90;32.65;;;17.10;99.90;;;19.81;60.49;97546.03;4972673;28;20034;-48
2023/05/23 04:11:38;;;;;;;50.25;32.55;;;17.10;99.90;;;19.81;60.75;97552.28;4944200;28;20046;-45
2023/05/23 04:14:06;;;;;;;50.55;33.55;;;17.10;99.90;;;19.92;60.29;97549.91;4972895;28;20043;-49
2023/05/23 04:16:36;;;;;;;52.80;33.58;;;17.20;99.90;;;19.92;60.35;97547.19;4962683;28;20541;-45
2023/05/23 04:19:04;;;;;;;46.92;35.15;;;17.20;99.90;;;19.71;60.77;97554.63;4955390;28;20043;-45
2023/05/23 04:21:33;;;;;;;50.95;33.20;;;17.10;99.90;;;19.87;60.26;97555.94;4954428;28;20054;-48
2023/05/23 04:24:09;;;;;;;51.17;33.67;;;17.10;99.90;;;19.83;60.41;97563.69;4954211;28;20445;-46
2023/05/23 04:26:38;;;;;;;45.20;32.25;;;17.10;99.90;;;19.75;60.35;97553.16;4965120;28;20054;-46
2023/05/23 04:29:06;;;;;;;47.80;33.28;;;17.00;99.90;;;19.64;61.00;97552.00;4954683;28;20047;-47
2023/05/23 04:31:33;;;;;;;48.75;34.60;;;16.90;99.90;;;19.72;60.94;97553.63;4954815;28;20039;-50
2023/05/23 04:34:02;;;;;;;48.83;33.50;;;16.90;99.90;;;19.72;60.69;97561.72;4962693;28;20050;-47
2023/05/23 04:36:36;;;;;;;49.42;33.63;;;17.00;99.90;;;19.77;60.57;97556.47;4954263;28;20426;-47
2023/05/23 04:39:05;;;;;;;52.35;34.45;;;17.00;99.90;;;19.80;60.59;97556.03;4954431;28;20505;-46
2023/05/23 04:41:38;;;;;;;48.15;32.80;;;17.00;99.90;;;19.88;60.39;97568.41;4947028;28;20050;-46
2023/05/23 04:44:17;;;;;;;52.08;35.40;;;17.10;99.90;;;19.82;60.77;97569.31;4954723;28;20053;-48
2023/05/23 04:47:08;;;;;;;48.83;33.38;;;17.10;99.90;;;19.87;60.25;97572.16;4954153;28;20047;-46
2023/05/23 04:49:56;;;;;;;46.10;32.53;;;17.00;99.90;;;19.98;60.09;97570.59;4949325;28;20619;-44
2023/05/23 04:52:26;;;;;;;48.80;33.85;;;17.10;99.90;;;20.04;59.75;97580.53;4962611;28;20054;-46
2023/05/23 04:54:54;;;;;;;46.20;34.45;;;17.20;99.90;;;20.03;59.94;97582.41;4970188;28;20423;-49
2023/05/23 04:57:22;;;;;;;50.85;34.88;;;17.30;99.90;;;19.94;60.11;97585.63;4971894;28;20518;-46
2023/05/23 04:59:50;;;;;;;45.83;32.42;;;17.20;99.90;;;19.86;59.89;97582.16;4954319;28;20055;-49
2023/05/23 05:02:18;;;;;;;51.45;36.25;;;17.00;99.90;;;19.84;60.02;97586.13;4962080;28;20051;-49
2023/05/23 05:04:46;;;;;;;47.10;33.53;;;17.00;99.90;;;19.85;60.12;97588.63;4954547;28;20043;-46
2023/05/23 05:07:13;;;;;;;46.42;34.05;;;17.10;99.90;;;19.83;60.25;97588.00;4971556;28;20057;-47
2023/05/23 05:09:41;;;;;;;47.65;34.53;;;17.00;99.90;;;19.81;60.06;97583.84;4970292;28;20062;-45
2023/05/23 05:12:11;;;;;;;52.38;35.75;;;17.00;99.90;;;19.88;60.13;97597.31;4946828;28;20062;-48
2023/05/23 05:14:39;;;;;;;46.50;34.20;;;17.10;99.90;;;19.82;60.06;97593.63;4954480;28;20541;-49
2023/05/23 05:17:07;;;;;;;46.30;32.95;;;17.10;99.90;;;19.86;60.25;97592.13;4953554;28;20039;-50
2023/05/23 05:19:45;;;;;;;52.33;35.30;;;17.10;99.90;;;19.77;60.41;97594.28;4947518;28;20051;-46
2023/05/23 05:22:13;;;;;;;52.15;35.88;;;17.00;99.90;;;19.79;60.27;97594.06;4971809;28;20058;-45
2023/05/23 05:24:41;;;;;;;59.95;36.17;;;17.00;99.90;;;19.80;60.57;97593.03;4962517;28;20054;-46
2023/05/23 05:27:10;;;;;;;51.35;35.17;;;17.00;99.90;;;19.62;60.85;97591.06;4970055;28;20047;-50
2023/05/23 05:29:38;;;;;;;45.50;34.97;;;16.90;99.90;;;19.76;60.62;97591.81;4961692;28;20427;-50
2023/05/23 05:32:07;;;;;;;50.17;34.10;;;17.00;99.90;;;19.77;60.73;97590.75;4971689;28;20038;-48
2023/05/23 05:34:36;;;;;;;51.70;35.53;;;17.00;99.90;;;19.78;60.39;97592.41;4953894;28;20046;-48
2023/05/23 05:37:04;;;;;;;50.42;36.45;;;17.00;99.90;;;19.85;60.45;97595.88;4953820;28;20526;-48
2023/05/23 05:39:33;;;;;;;46.30;35.10;;;17.10;99.90;;;19.92;60.33;97601.22;4954015;28;20054;-50
2023/05/23 05:42:02;;;;;;;43.65;34.50;;;17.20;99.90;;;20.09;59.82;97601.50;4971203;28;20410;-47
2023/05/23 05:44:30;;;;;;;48.15;35.08;;;17.30;99.90;;;20.09;59.73;97594.19;4954294;28;20428;-46
2023/05/23 05:46:58;;;;;;;48.80;35.33;;;17.30;99.90;;;20.09;59.40;97596.09;4938077;28;20042;-44
2023/05/23 05:49:25;;;;;;;51.53;35.28;;;17.30;99.90;;;19.97;59.86;97604.91;4969695;28;20564;-48
2023/05/23 05:51:56;;;;;;;46.35;33.80;;;17.20;99.90;;;20.03;59.38;97598.63;4953576;28;20503;-46
2023/05/23 05:54:23;;;;;;;45.50;32.63;;;17.30;99.90;;;20.13;59.33;97600.81;4971461;28;20039;-46
2023/05/23 05:56:51;;;;;;;48.90;32.13;;;17.40;99.90;;;20.00;59.59;97593.66;4953791;28;20047;-47
2023/05/23 05:59:18;;;;;;;45.50;32.22;;;17.20;99.90;;;20.00;59.55;97599.06;4954816;28;20050;-47
2023/05/23 06:01:46;;;;;;;50.75;31.60;;;17.20;99.90;;;20.08;59.05;97592.53;4961547;28;20422;-45
2023/05/23 06:04:14;;;;;;;41.60;30.73;;;17.30;99.90;;;20.13;59.03;97600.81;4970414;28;20415;-46
2023/05/23 06:06:42;;;;;;;39.40;30.52;;;17.30;99.90;;;20.17;58.90;97606.59;4957307;28;20046;-45
2023/05/23 06:09:10;;;;;;;41.30;30.23;;;17.40;99.90;;;20.11;59.27;97608.31;4956888;28;20055;-45
2023/05/23 06:11:39;;;;;;;42.13;30.92;;;17.30;99.90;;;20.05;59.09;97604.63;4974952;28;20035;-47
2023/05/23 06:14:08;;;;;;;40.83;28.92;;;17.40;99.90;;;20.01;58.97;97603.41;4973271;28;20428;-48
2023/05/23 06:16:38;;;;;;;45.13;31.08;;;17.30;99.90;;;20.00;59.37;97615.25;4956191;28;20065;-46
2023/05/23 06:19:07;;;;;;;41.42;30.42;;;17.20;99.90;;;19.87;59.66;97615.38;4974865;28;20043;-46
2023/05/23 06:21:35;;;;;;;41.40;29.77;;;17.10;99.90;;;19.94;58.85;97610.75;4973518;28;20047;-45
2023/05/23 06:24:05;;;;;;;38.13;28.33;;;17.10;99.90;;;19.81;59.54;97614.41;4973434;28;20039;-45
2023/05/23 06:26:32;;;;;;;39.47;29.58;;;17.00;99.90;;;19.68;59.62;97619.91;4964448;28;20047;-47
2023/05/23 06:29:00;;;;;;;41.92;31.02;;;17.00;99.90;;;19.72;59.77;97626.53;4957182;28;20049;-45
2023/05/23 06:31:27;;;;;;;41.30;28.52;;;17.00;99.90;;;19.76;59.67;97630.44;4956812;28;20399;-50
2023/05/23 06:33:55;;;;;;;36.67;27.25;;;17.00;99.90;;;19.87;59.28;97628.88;4974596;28;20139;-47
2023/05/23 06:36:23;;;;;;;41.00;29.67;;;17.10;99.90;;;19.78;59.25;97636.47;4972937;28;20542;-45
2023/05/23 06:38:50;;;;;;;42.63;30.08;;;17.10;99.90;;;19.80;59.11;97647.03;4974295;28;20042;-44
2023/05/23 06:41:18;;;;;;;32.25;25.25;;;17.10;99.90;;;19.57;59.16;97648.41;4964602;28;20047;-49
2023/05/23 06:43:45;;;;;;;34.20;23.80;;;16.80;99.90;;;19.54;58.92;97658.81;4964927;28;20065;-48
2023/05/23 06:46:15;;;;;;;32.42;26.30;;;16.70;99.90;;;19.36;59.43;97644.19;4956505;28;20211;-49
2023/05/23 06:48:44;;;;;;;31.13;23.85;;;16.70;99.90;;;19.23;59.53;97650.53;4964764;28;20047;-46
2023/05/23 06:51:11;;;;;;;32.72;24.15;;;16.60;99.90;;;19.13;59.83;97657.41;4956112;28;20047;-46
2023/05/23 06:53:40;;;;;;;31.90;25.80;;;16.60;99.90;;;19.28;59.41;97658.78;4964308;28;20525;-45
2023/05/23 06:56:07;;;;;;;32.30;24.08;;;16.70;99.90;;;19.30;59.32;97663.16;4956776;28;20043;-46
2023/05/23 06:58:45;;;;;;;32.95;24.42;;;16.70;99.90;;;19.28;58.86;97668.75;4956422;28;20050;-46
2023/05/23 07:01:14;;;;;;;30.67;23.63;;;16.60;99.90;;;19.32;59.01;97664.56;4956177;28;20050;-47
2023/05/23 07:03:46;;;;;;;37.28;26.85;;;16.70;99.90;;;19.38;59.13;97665.56;4956303;28;20046;-47
2023/05/23 07:06:14;;;;;;;36.17;27.10;;;16.70;99.90;;;19.35;59.28;97674.94;4955820;28;20070;-46
2023/05/23 07:08:42;;;;;;;33.10;26.35;;;16.70;99.90;;;19.25;59.30;97683.50;4955840;28;20525;-46
2023/05/23 07:11:10;;;;;;;36.70;28.20;;;16.60;99.90;;;19.40;58.99;97693.19;4956164;28;20546;-48
2023/05/23 07:13:41;;;;;;;39.78;28.90;;;16.60;99.90;;;19.28;58.78;97688.47;4952383;28;20413;-47
2023/05/23 07:16:14;;;;;;;36.67;27.70;;;16.60;99.90;;;19.32;58.90;97698.84;4955359;28;20046;-46
2023/05/23 07:18:52;;;;;;;27.42;22.25;;;16.60;99.90;;;18.91;58.07;97695.50;4956449;28;20050;-46
2023/05/23 07:21:20;;;;;;;28.70;21.27;;;16.40;99.90;;;18.82;57.43;97702.97;4963575;28;20051;-46
2023/05/23 07:23:48;;;;;;;25.75;19.35;;;16.20;99.90;;;18.74;57.76;97700.47;4956192;28;20080;-46
2023/05/23 07:26:16;;;;;;;29.35;21.75;;;16.20;99.90;;;18.84;57.55;97705.47;4956220;28;20047;-46
2023/05/23 07:28:50;;;;;;;26.38;20.52;;;16.30;99.90;;;18.99;56.90;97702.50;4948518;28;20106;-46
2023/05/23 07:31:17;;;;;;;24.88;18.88;;;16.40;99.90;;;19.12;56.59;97696.25;4963724;28;20404;-45
2023/05/23 07:33:46;;;;;;;24.58;20.00;;;16.50;99.90;;;19.04;56.45;97686.53;4973882;28;20046;-45
2023/05/23 07:36:21;;;;;;;25.08;18.42;;;16.50;99.90;;;19.30;56.43;97685.56;4955711;28;20054;-49
2023/05/23 07:38:50;;;;;;;24.77;19.17;;;16.70;99.90;;;19.57;55.64;97685.41;4955863;28;20047;-48
2023/05/23 07:41:17;;;;;;;24.52;20.08;;;17.00;99.90;;;19.33;55.87;97693.22;4955124;28;20051;-50
2023/05/23 07:43:45;;;;;;;31.05;21.70;;;16.80;99.90;;;19.20;56.11;97696.81;4955281;28;20053;-46
2023/05/23 07:46:13;;;;;;;26.63;18.92;;;16.70;99.90;;;19.35;55.94;97691.16;4973261;28;20411;-45
2023/05/23 07:48:41;;;;;;;24.42;18.80;;;16.80;99.90;;;19.22;56.07;97696.59;4963122;28;20414;-47
2023/05/23 07:51:11;;;;;;;26.80;20.88;;;16.70;99.90;;;19.07;56.11;97703.09;4955429;28;20094;-46
2023/05/23 07:53:39;;;;;;;24.25;18.63;;;16.60;99.90;;;19.01;55.72;97701.25;4970751;28;20403;-48
2023/05/23 07:56:10;;;;;;;24.10;20.10;;;16.50;99.90;;;18.96;56.11;97703.78;4963420;28;20475;-48
2023/05/23 07:58:40;;;;;;;24.50;19.10;;;16.40;99.90;;;18.98;55.39;97709.78;4947641;28;20050;-47
2023/05/23 08:01:09;;;;;;;22.65;17.70;;;16.50;99.90;;;19.02;55.22;97713.72;4955325;28;20066;-49
2023/05/23 08:03:56;;;;;;;22.65;18.23;;;16.50;99.90;;;19.00;55.09;97715.78;4948560;28;20523;-46
2023/05/23 08:06:30;;;;;;;28.38;18.35;;;16.40;99.90;;;18.80;55.15;97706.94;4972561;28;20042;-45
2023/05/23 08:09:01;;;;;;;21.67;15.82;;;16.30;99.90;;;18.60;55.55;97717.75;4955428;28;20047;-49
2023/05/23 08:11:30;;;;;;;22.92;18.73;;;16.10;99.90;;;18.62;55.18;97719.19;4970727;28;20061;-47
2023/05/23 08:14:00;;;;;;;22.02;15.93;;;16.10;99.90;;;18.73;54.84;97715.03;4954924;28;20046;-45
2023/05/23 08:16:37;;;;;;;23.42;18.08;;;16.20;99.90;;;18.39;55.51;97727.72;4972193;28;20066;-50
2023/05/23 08:19:10;;;;;;;22.02;17.80;;;16.00;99.90;;;18.59;55.21;97716.94;4955185;28;20043;-46
2023/05/23 08:21:38;;;;;;;20.83;16.63;;;16.10;99.90;;;18.83;54.93;97720.81;4962132;28;20061;-44
2023/05/23 08:24:05;;;;;;;22.80;16.40;;;16.30;99.90;;;18.63;55.42;97722.69;4954788;28;20073;-46
2023/05/23 08:26:35;;;;;;;21.55;15.93;;;16.20;99.90;;;18.71;55.33;97722.50;4970541;28;20054;-49
2023/05/23 08:29:04;;;;;;;20.23;16.65;;;16.20;99.90;;;18.72;55.39;97731.41;4954828;28;20049;-47
2023/05/23 08:31:32;;;;;;;22.85;16.80;;;16.10;99.90;;;18.74;55.27;97718.53;4954399;28;20102;-48
2023/05/23 08:34:05;;;;;;;23.85;17.60;;;16.20;99.90;;;18.82;55.18;97732.63;4954784;28;20257;-45
2023/05/23 08:36:35;;;;;;;22.02;17.58;;;16.20;99.90;;;18.99;54.90;97738.41;4970753;28;20065;-50
2023/05/23 08:39:05;;;;;;;20.90;18.08;;;16.40;99.90;;;18.86;55.12;97733.06;4954731;28;20506;-45
2023/05/23 08:41:38;;;;;;;25.27;18.05;;;16.20;99.90;;;18.79;55.35;97738.44;4954439;28;20474;-46
2023/05/23 08:44:10;;;;;;;22.70;16.13;;;16.20;99.90;;;18.81;55.05;97735.56;4955294;28;20061;-46
2023/05/23 08:46:46;;;;;;;20.88;16.15;;;16.20;99.90;;;18.86;55.07;97743.84;4954691;28;20147;-47
2023/05/23 08:49:25;;;;;;;19.58;15.40;;;16.20;99.90;;;18.60;55.40;97744.72;4962432;28;20051;-47
2023/05/23 08:52:01;;;;;;;20.60;15.95;;;16.10;99.90;;;18.80;54.84;97747.38;4954454;28;20050;-49
2023/05/23 08:54:31;;;;;;;20.23;15.60;;;16.20;99.90;;;18.89;54.62;97754.22;4954835;28;20506;-45
2023/05/23 08:57:01;;;;;;;18.50;14.98;;;16.40;99.90;;;18.67;54.84;97745.53;4970442;28;20042;-45
2023/05/23 08:59:32;;;;;;;18.42;15.75;;;16.20;99.90;;;18.83;54.29;97745.09;4970739;28;20288;-47
2023/05/23 09:02:07;;;;;;;18.98;15.00;;;16.30;99.90;;;19.01;54.01;97744.41;4970634;28;20511;-48
2023/05/23 09:04:35;;;;;;;19.20;15.07;;;16.40;98.80;;;18.97;53.77;97751.28;4954614;28;20070;-47
2023/05/23 09:07:08;;;;;;;16.17;12.40;;;16.40;99.10;;;19.26;53.21;97754.50;4954375;28;20046;-50
2023/05/23 09:09:36;;;;;;;18.27;13.05;;;16.60;96.20;;;19.46;53.00;97751.69;4954196;28;20055;-49
2023/05/23 09:12:06;;;;;;;14.07;11.45;;;16.80;96.70;;;19.45;51.91;97768.97;4954454;28;20042;-46
2023/05/23 09:14:36;;;;;;;15.50;11.80;;;16.80;90.60;;;19.44;52.02;97751.94;4954650;28;20058;-48
2023/05/23 09:17:07;;;;;;;15.55;11.45;;;16.80;91.70;;;19.57;52.08;97753.72;4953829;28;20047;-48
2023/05/23 09:19:40;;;;;;;15.60;12.43;;;17.00;92.80;;;19.88;51.63;97756.69;4971828;28;20479;-47
2023/05/23 09:22:27;;;;;;;13.82;12.30;;;17.40;90.60;;;20.17;51.17;97756.06;4970553;28;20455;-47
2023/05/23 09:25:01;;;;;;;14.93;11.45;;;17.70;89.60;;;20.09;50.36;97745.53;4956246;28;20042;-49
2023/05/23 09:27:29;;;;;;;14.18;11.30;;;17.60;83.50;;;20.21;50.42;97756.44;4971741;28;20043;-46
2023/05/23 09:30:09;;;;;;;13.18;10.75;;;17.80;86.90;;;20.17;49.52;97750.66;4953750;28;20050;-50
2023/05/23 09:32:37;;;;;;;12.85;10.90;;;17.80;81.80;;;20.34;49.87;97759.06;4971765;28;20043;-47
2023/05/23 09:35:11;;;;;;;12.00;10.55;;;17.90;81.70;;;20.58;49.35;97762.78;4954401;28;20506;-50
2023/05/23 09:37:45;;;;;;;12.05;10.52;;;18.20;80.80;;;20.61;48.91;97765.09;4969974;28;20054;-48
2023/05/23 09:40:14;;;;;;;13.07;10.23;;;18.20;81.00;;;20.77;48.47;97760.97;4973217;28;20039;-51
2023/05/23 09:42:50;;;;;;;12.98;9.93;;;18.30;79.70;;;20.81;46.47;97769.47;4965891;28;20077;-46
2023/05/23 09:45:18;;;;;;;13.13;9.65;;;18.30;74.50;;;20.80;47.39;97754.25;4965950;28;20522;-50
2023/05/23 09:47:52;;;;;;;13.05;9.23;;;18.30;75.60;;;20.96;46.76;97758.28;4956549;28;20066;-49
2023/05/23 09:50:21;;;;;;;10.70;8.85;;;18.60;74.90;;;21.09;45.97;97762.69;4975282;28;20039;-50
2023/05/23 09:52:49;;;;;;;10.57;9.48;;;18.80;73.20;;;20.98;46.23;97745.34;4975122;28;20051;-50
2023/05/23 09:55:18;;;;;;;10.05;8.57;;;18.70;72.70;;;21.07;47.54;97753.97;4957854;28;20529;-48
2023/05/23 09:57:53;;;;;;;11.45;9.18;;;18.70;76.50;;;20.74;47.97;97750.56;4973537;28;20058;-48
2023/05/23 10:00:22;;;;;;;12.18;9.43;;;18.40;77.10;;;20.57;48.90;97755.72;4973892;28;20400;-47
2023/05/23 10:03:12;;;;;;;12.02;9.45;;;18.30;79.30;;;20.70;48.21;97759.38;4973940;28;20050;-48
2023/05/23 10:05:44;;;;;;;12.18;8.95;;;18.40;78.60;;;21.14;47.51;97758.25;4975121;28;20053;-47
2023/05/23 10:08:25;;;;;;;10.88;9.27;;;18.70;75.60;;;21.20;47.74;97760.06;4973808;28;20042;-46
2023/05/23 10:10:55;;;;;;;12.15;10.13;;;18.90;76.60;;;21.24;47.13;97760.44;4974684;28;20425;-46
2023/05/23 10:13:27;;;;;;;13.02;10.57;;;18.80;75.30;;;21.22;47.22;97770.66;4971873;28;20057;-48
2023/05/23 10:16:07;;;;;;;11.88;8.93;;;18.80;75.60;;;21.19;48.13;97765.69;4974146;28;20418;-47
2023/05/23 10:18:43;;;;;;;12.85;10.93;;;18.80;78.40;;;21.23;46.91;97778.56;4957146;28;20050;-48